Wetterdaten: aktuell Sonntag, 20.06.2021 21:45
Datum Zeit Temp. A. Feuchte A. Luftdruck Regen Wind Richtung Richtung Taupunkt Windchill Windben
20.06.2021 21:45 16,2 C 90 % 1006,6 hPa 0,0 l/m 0,2 km/h (0 Bft) S-SW 197 14,6 C 16,2 C 1,6 km/h (1 Bft)
20.06.2021 21:40 16,2 C 90 % 1007,1 hPa 0,0 l/m 0,0 km/h (0 Bft) S-SW 197 14,6 C 16,2 C 1,6 km/h (1 Bft)
20.06.2021 21:35 16,1 C 90 % 1007,2 hPa 0,0 l/m 0,3 km/h (0 Bft) S-SW 197 14,5 C 16,1 C 3,2 km/h (1 Bft)
20.06.2021 21:30 16,1 C 90 % 1007,2 hPa 0,0 l/m 0,8 km/h (0 Bft) S-SW 197 14,5 C 16,1 C 3,2 km/h (1 Bft)
20.06.2021 21:25 16,2 C 91 % 1007,4 hPa 0,0 l/m 0,0 km/h (0 Bft) S-SW 197 14,7 C 16,2 C 1,6 km/h (1 Bft)
20.06.2021 21:20 16,1 C 91 % 1007,4 hPa 0,4 l/m 0,5 km/h (0 Bft) S-SW 197 14,6 C 16,1 C 3,2 km/h (1 Bft)
20.06.2021 21:15 15,9 C 90 % 1007,7 hPa 0,0 l/m 1,6 km/h (1 Bft) S-SW 197 14,3 C 15,9 C 3,2 km/h (1 Bft)
20.06.2021 21:10 16,1 C 90 % 1007,6 hPa 0,2 l/m 1,7 km/h (1 Bft) S-SW 197 14,5 C 16,1 C 4,8 km/h (1 Bft)
20.06.2021 21:05 15,9 C 91 % 1007,6 hPa 0,2 l/m 1,5 km/h (1 Bft) S-SW 197 14,4 C 15,9 C 6,4 km/h (2 Bft)
20.06.2021 21:00 15,9 C 91 % 1008,0 hPa 0,2 l/m 5,3 km/h (1 Bft) S 188 14,4 C 15,9 C 9,7 km/h (2 Bft)
20.06.2021 20:55 15,9 C 91 % 1008,1 hPa 0,0 l/m 1,5 km/h (1 Bft) S-SW 196 14,4 C 15,9 C 4,8 km/h (1 Bft)
20.06.2021 20:50 15,8 C 91 % 1008,2 hPa 0,2 l/m 1,6 km/h (1 Bft) S-SW 196 14,3 C 15,8 C 4,8 km/h (1 Bft)
20.06.2021 20:45 15,8 C 91 % 1008,3 hPa 0,0 l/m 2,4 km/h (1 Bft) S-SW 196 14,3 C 15,8 C 11,3 km/h (2 Bft)
20.06.2021 20:40 15,7 C 91 % 1008,6 hPa 0,0 l/m 4,7 km/h (1 Bft) S 184 14,2 C 15,7 C 11,3 km/h (2 Bft)
20.06.2021 20:35 15,7 C 91 % 1009,0 hPa 0,2 l/m 5,9 km/h (2 Bft) S 188 14,2 C 15,7 C 9,7 km/h (2 Bft)
20.06.2021 20:30 15,6 C 90 % 1009,5 hPa 0,2 l/m 8,1 km/h (2 Bft) S 186 14,0 C 14,7 C 16,1 km/h (3 Bft)
20.06.2021 20:25 15,6 C 90 % 1009,8 hPa 0,4 l/m 7,2 km/h (2 Bft) S 175 14,0 C 15,2 C 11,3 km/h (2 Bft)
20.06.2021 20:20 15,6 C 90 % 1009,9 hPa 0,6 l/m 5,2 km/h (1 Bft) S-SW 197 14,0 C 15,6 C 14,5 km/h (3 Bft)
20.06.2021 20:15 15,7 C 89 % 1009,9 hPa 0,6 l/m 4,4 km/h (1 Bft) S 189 13,9 C 15,7 C 12,9 km/h (3 Bft)
20.06.2021 20:10 16,0 C 87 % 1009,8 hPa 6,2 l/m 5,8 km/h (2 Bft) NW 304 13,8 C 16,0 C 19,3 km/h (3 Bft)
20.06.2021 20:05 17,1 C 88 % 1010,1 hPa 9,8 l/m 18,0 km/h (3 Bft) N-NW 339 15,1 C 12,9 C 40,2 km/h (6 Bft)
20.06.2021 20:00 17,9 C 91 % 1010,4 hPa 0,0 l/m 16,4 km/h (3 Bft) S 180 16,4 C 14,3 C 45,1 km/h (6 Bft)
20.06.2021 19:55 17,9 C 91 % 1009,5 hPa 0,0 l/m 8,4 km/h (2 Bft) S-SW 200 16,4 C 17,0 C 19,3 km/h (3 Bft)
20.06.2021 19:50 17,8 C 91 % 1008,8 hPa 0,0 l/m 7,3 km/h (2 Bft) S-SW 194 16,3 C 17,4 C 27,4 km/h (4 Bft)
20.06.2021 19:45 17,8 C 91 % 1008,3 hPa 0,2 l/m 4,8 km/h (1 Bft) NO 37 16,3 C 17,8 C 11,3 km/h (2 Bft)
20.06.2021 19:40 17,7 C 90 % 1007,5 hPa 0,0 l/m 8,1 km/h (2 Bft) S 180 16,0 C 16,9 C 16,1 km/h (3 Bft)
20.06.2021 19:35 17,7 C 90 % 1006,3 hPa 0,0 l/m 3,8 km/h (1 Bft) N 355 16,0 C 17,7 C 8,0 km/h (2 Bft)
20.06.2021 19:30 17,8 C 90 % 1005,8 hPa 0,0 l/m 2,0 km/h (1 Bft) N 355 16,1 C 17,8 C 4,8 km/h (1 Bft)
20.06.2021 19:25 17,8 C 90 % 1005,4 hPa 0,0 l/m 0,8 km/h (0 Bft) N 355 16,1 C 17,8 C 3,2 km/h (1 Bft)
20.06.2021 19:20 17,7 C 90 % 1005,1 hPa 0,0 l/m 0,9 km/h (0 Bft) N 355 16,0 C 17,7 C 4,8 km/h (1 Bft)
20.06.2021 19:15 17,7 C 89 % 1005,4 hPa 0,0 l/m 3,4 km/h (1 Bft) N 355 15,9 C 17,7 C 4,8 km/h (1 Bft)
20.06.2021 19:10 17,7 C 89 % 1005,5 hPa 0,0 l/m 4,6 km/h (1 Bft) N 355 15,9 C 17,7 C 8,0 km/h (2 Bft)
20.06.2021 19:05 17,8 C 89 % 1005,4 hPa 0,0 l/m 5,0 km/h (1 Bft) N 355 16,0 C 17,8 C 8,0 km/h (2 Bft)
20.06.2021 19:00 17,9 C 89 % 1005,1 hPa 0,0 l/m 3,0 km/h (1 Bft) N-NW 338 16,1 C 17,9 C 6,4 km/h (2 Bft)
20.06.2021 18:55 18,1 C 89 % 1005,3 hPa 0,0 l/m 2,4 km/h (1 Bft) N-NW 338 16,3 C 18,1 C 6,4 km/h (2 Bft)
20.06.2021 18:50 18,3 C 90 % 1005,5 hPa 0,0 l/m 1,0 km/h (0 Bft) NW 319 16,6 C 18,3 C 4,8 km/h (1 Bft)
20.06.2021 18:45 18,4 C 89 % 1005,6 hPa 0,0 l/m 0,6 km/h (0 Bft) NW 319 16,6 C 18,4 C 3,2 km/h (1 Bft)
20.06.2021 18:40 18,6 C 90 % 1005,6 hPa 0,0 l/m 0,5 km/h (0 Bft) NW 319 16,9 C 18,6 C 3,2 km/h (1 Bft)
20.06.2021 18:35 18,6 C 89 % 1005,9 hPa 0,0 l/m 0,3 km/h (0 Bft) NW 319 16,7 C 18,6 C 3,2 km/h (1 Bft)
20.06.2021 18:30 18,6 C 88 % 1006,0 hPa 0,0 l/m 1,3 km/h (1 Bft) NW 319 16,6 C 18,6 C 4,8 km/h (1 Bft)
20.06.2021 18:25 18,7 C 87 % 1005,9 hPa 0,2 l/m 1,1 km/h (1 Bft) NW 319 16,5 C 18,7 C 3,2 km/h (1 Bft)
20.06.2021 18:20 18,7 C 86 % 1006,5 hPa 0,0 l/m 3,5 km/h (1 Bft) NW 319 16,3 C 18,7 C 6,4 km/h (2 Bft)
20.06.2021 18:15 19,1 C 87 % 1006,8 hPa 0,2 l/m 0,0 km/h (0 Bft) NW 317 16,9 C 19,1 C 0,0 km/h (0 Bft)
20.06.2021 18:10 19,0 C 85 % 1007,1 hPa 0,2 l/m 1,6 km/h (1 Bft) NW 317 16,4 C 19,0 C 4,8 km/h (1 Bft)
20.06.2021 18:05 19,1 C 86 % 1007,1 hPa 0,0 l/m 1,2 km/h (1 Bft) NW 317 16,7 C 19,1 C 4,8 km/h (1 Bft)
20.06.2021 18:00 19,2 C 85 % 1007,3 hPa 0,4 l/m 1,7 km/h (1 Bft) NW 323 16,6 C 19,2 C 8,0 km/h (2 Bft)
20.06.2021 17:55 19,5 C 83 % 1007,2 hPa 0,2 l/m 6,3 km/h (2 Bft) N-NW 337 16,5 C 19,5 C 20,9 km/h (4 Bft)
20.06.2021 17:50 20,3 C 80 % 1007,1 hPa 1,2 l/m 6,0 km/h (2 Bft) N-NW 344 16,7 C 20,3 C 22,5 km/h (4 Bft)
20.06.2021 17:45 21,4 C 78 % 1007,4 hPa 6,0 l/m 9,2 km/h (2 Bft) N 5 17,4 C 20,4 C 25,7 km/h (4 Bft)
20.06.2021 17:40 22,8 C 73 % 1007,4 hPa 0,2 l/m 14,0 km/h (3 Bft) NW 315 17,7 C 20,8 C 38,6 km/h (5 Bft)
20.06.2021 17:35 23,3 C 71 % 1007,0 hPa 0,0 l/m 5,5 km/h (1 Bft) S 172 17,7 C 23,3 C 14,5 km/h (3 Bft)
20.06.2021 17:30 23,6 C 70 % 1006,1 hPa 0,0 l/m 3,2 km/h (1 Bft) N 350 17,8 C 23,6 C 8,0 km/h (2 Bft)
20.06.2021 17:25 23,6 C 69 % 1005,7 hPa 0,0 l/m 5,9 km/h (2 Bft) N 360 17,6 C 23,6 C 12,9 km/h (3 Bft)
20.06.2021 17:20 23,4 C 69 % 1005,9 hPa 0,0 l/m 3,6 km/h (1 Bft) N 360 17,4 C 23,4 C 6,4 km/h (2 Bft)
20.06.2021 17:15 23,4 C 70 % 1005,9 hPa 0,0 l/m 3,4 km/h (1 Bft) N 355 17,6 C 23,4 C 6,4 km/h (2 Bft)
20.06.2021 17:10 23,6 C 70 % 1005,7 hPa 0,0 l/m 4,0 km/h (1 Bft) N 355 17,8 C 23,6 C 8,0 km/h (2 Bft)
20.06.2021 17:05 23,8 C 69 % 1005,5 hPa 0,0 l/m 6,1 km/h (2 Bft) N 355 17,8 C 23,8 C 14,5 km/h (3 Bft)
20.06.2021 17:00 24,0 C 69 % 1005,2 hPa 0,0 l/m 5,3 km/h (1 Bft) N 355 18,0 C 24,0 C 8,0 km/h (2 Bft)
20.06.2021 16:55 24,4 C 69 % 1005,4 hPa 0,0 l/m 5,7 km/h (1 Bft) N 350 18,3 C 24,4 C 9,7 km/h (2 Bft)
20.06.2021 16:50 24,7 C 68 % 1005,6 hPa 0,0 l/m 3,9 km/h (1 Bft) N-NW 344 18,4 C 24,7 C 6,4 km/h (2 Bft)
20.06.2021 16:45 24,9 C 66 % 1005,8 hPa 0,0 l/m 0,5 km/h (0 Bft) N-NW 344 18,1 C 24,9 C 3,2 km/h (1 Bft)
20.06.2021 16:40 24,9 C 65 % 1005,9 hPa 0,0 l/m 0,6 km/h (0 Bft) N-NW 344 17,9 C 24,9 C 3,2 km/h (1 Bft)
20.06.2021 16:35 24,9 C 66 % 1006,0 hPa 0,0 l/m 2,9 km/h (1 Bft) N-NW 344 18,1 C 24,9 C 4,8 km/h (1 Bft)
20.06.2021 16:30 24,9 C 65 % 1006,0 hPa 0,0 l/m 3,7 km/h (1 Bft) N-NW 344 17,9 C 24,9 C 6,4 km/h (2 Bft)
20.06.2021 16:25 25,2 C 65 % 1005,8 hPa 0,0 l/m 4,1 km/h (1 Bft) N-NW 343 18,1 C 25,2 C 6,4 km/h (2 Bft)
20.06.2021 16:20 25,4 C 64 % 1005,8 hPa 0,0 l/m 3,9 km/h (1 Bft) N-NW 343 18,1 C 25,4 C 6,4 km/h (2 Bft)
20.06.2021 16:15 25,8 C 63 % 1005,9 hPa 0,0 l/m 3,2 km/h (1 Bft) N-NW 343 18,2 C 25,8 C 4,8 km/h (1 Bft)
20.06.2021 16:10 25,9 C 62 % 1006,0 hPa 0,0 l/m 1,6 km/h (1 Bft) N-NW 343 18,0 C 25,9 C 4,8 km/h (1 Bft)
20.06.2021 16:05 26,1 C 61 % 1005,9 hPa 0,0 l/m 1,2 km/h (1 Bft) N-NW 343 18,0 C 26,1 C 3,2 km/h (1 Bft)
20.06.2021 16:00 26,1 C 61 % 1005,9 hPa 0,0 l/m 2,9 km/h (1 Bft) N-NW 343 18,0 C 26,1 C 4,8 km/h (1 Bft)
20.06.2021 15:55 26,1 C 61 % 1006,0 hPa 0,0 l/m 3,5 km/h (1 Bft) N-NW 343 18,0 C 26,1 C 6,4 km/h (2 Bft)
20.06.2021 15:50 26,3 C 60 % 1006,0 hPa 0,0 l/m 2,7 km/h (1 Bft) N-NW 343 17,9 C 26,3 C 4,8 km/h (1 Bft)
20.06.2021 15:45 26,5 C 60 % 1006,0 hPa 0,0 l/m 3,6 km/h (1 Bft) N-NW 343 18,1 C 26,5 C 6,4 km/h (2 Bft)
20.06.2021 15:40 26,7 C 58 % 1005,9 hPa 0,0 l/m 4,2 km/h (1 Bft) N-NW 343 17,7 C 26,7 C 8,0 km/h (2 Bft)
20.06.2021 15:35 26,9 C 58 % 1005,9 hPa 0,0 l/m 3,2 km/h (1 Bft) N-NW 330 17,9 C 26,9 C 6,4 km/h (2 Bft)
20.06.2021 15:30 27,1 C 56 % 1005,8 hPa 0,0 l/m 1,8 km/h (1 Bft) NW 325 17,5 C 27,1 C 4,8 km/h (1 Bft)
20.06.2021 15:25 27,3 C 55 % 1005,9 hPa 0,0 l/m 2,4 km/h (1 Bft) NW 325 17,4 C 27,3 C 6,4 km/h (2 Bft)
20.06.2021 15:20 27,4 C 54 % 1005,8 hPa 0,0 l/m 3,4 km/h (1 Bft) NW 321 17,3 C 27,4 C 6,4 km/h (2 Bft)
20.06.2021 15:15 27,7 C 54 % 1006,1 hPa 0,0 l/m 1,5 km/h (1 Bft) N-NW 340 17,5 C 27,7 C 6,4 km/h (2 Bft)
20.06.2021 15:10 27,8 C 52 % 1006,3 hPa 0,0 l/m 1,7 km/h (1 Bft) N-NW 336 17,0 C 27,8 C 4,8 km/h (1 Bft)
20.06.2021 15:05 28,1 C 52 % 1006,3 hPa 0,0 l/m 1,6 km/h (1 Bft) NW 309 17,3 C 28,1 C 4,8 km/h (1 Bft)
20.06.2021 15:00 27,8 C 50 % 1006,4 hPa 0,0 l/m 1,7 km/h (1 Bft) NW 306 16,4 C 27,8 C 4,8 km/h (1 Bft)
20.06.2021 14:55 27,6 C 50 % 1006,5 hPa 0,0 l/m 1,4 km/h (1 Bft) W-NW 300 16,2 C 27,6 C 4,8 km/h (1 Bft)
20.06.2021 14:50 27,7 C 50 % 1006,7 hPa 0,0 l/m 2,1 km/h (1 Bft) NW 304 16,3 C 27,7 C 4,8 km/h (1 Bft)
20.06.2021 14:45 27,4 C 51 % 1006,8 hPa 0,0 l/m 2,1 km/h (1 Bft) NW 304 16,3 C 27,4 C 4,8 km/h (1 Bft)
20.06.2021 14:40 27,7 C 50 % 1006,7 hPa 0,0 l/m 0,5 km/h (0 Bft) NW 304 16,3 C 27,7 C 3,2 km/h (1 Bft)
20.06.2021 14:35 27,2 C 51 % 1006,8 hPa 0,0 l/m 1,1 km/h (1 Bft) S-SW 197 16,2 C 27,2 C 3,2 km/h (1 Bft)
20.06.2021 14:30 27,0 C 51 % 1006,9 hPa 0,0 l/m 0,6 km/h (0 Bft) S-SW 197 16,0 C 27,0 C 3,2 km/h (1 Bft)
20.06.2021 14:25 27,2 C 51 % 1007,0 hPa 0,0 l/m 1,0 km/h (0 Bft) S-SW 197 16,2 C 27,2 C 3,2 km/h (1 Bft)
20.06.2021 14:20 27,2 C 53 % 1007,1 hPa 0,0 l/m 1,0 km/h (0 Bft) S-SW 197 16,8 C 27,2 C 3,2 km/h (1 Bft)
20.06.2021 14:15 26,7 C 54 % 1007,2 hPa 0,0 l/m 0,8 km/h (0 Bft) S-SW 197 16,6 C 26,7 C 3,2 km/h (1 Bft)
20.06.2021 14:10 26,3 C 55 % 1007,5 hPa 0,0 l/m 1,0 km/h (0 Bft) S-SW 197 16,5 C 26,3 C 4,8 km/h (1 Bft)
20.06.2021 14:05 25,9 C 58 % 1007,6 hPa 0,0 l/m 2,9 km/h (1 Bft) S-SW 197 17,0 C 25,9 C 4,8 km/h (1 Bft)
20.06.2021 14:00 25,3 C 60 % 1007,7 hPa 0,0 l/m 3,1 km/h (1 Bft) S-SW 197 17,0 C 25,3 C 9,7 km/h (2 Bft)
20.06.2021 13:55 25,4 C 58 % 1008,0 hPa 0,0 l/m 5,4 km/h (1 Bft) S-SW 193 16,5 C 25,4 C 9,7 km/h (2 Bft)
20.06.2021 13:50 25,7 C 56 % 1008,1 hPa 0,0 l/m 3,7 km/h (1 Bft) S 183 16,2 C 25,7 C 8,0 km/h (2 Bft)
20.06.2021 13:45 25,3 C 56 % 1008,2 hPa 0,0 l/m 7,5 km/h (2 Bft) S 178 15,9 C 25,0 C 12,9 km/h (3 Bft)
20.06.2021 13:40 25,6 C 57 % 1008,2 hPa 0,0 l/m 7,1 km/h (2 Bft) S 180 16,4 C 25,4 C 11,3 km/h (2 Bft)
20.06.2021 13:35 25,9 C 56 % 1008,2 hPa 0,0 l/m 4,8 km/h (1 Bft) S 184 16,4 C 25,9 C 9,7 km/h (2 Bft)
20.06.2021 13:30 25,7 C 56 % 1008,4 hPa 0,0 l/m 5,5 km/h (1 Bft) S 190 16,2 C 25,7 C 9,7 km/h (2 Bft)
_ Min-Zeit 20:20 14:40 19:00 - 18:15 - - 20:10 20:05 18:15
Minimum _ 15,6 C 50 % 1005,1 hPa - 0,0 km/h (0 Bft) - - 13,8 C 12,9 C 0,0 km/h (0 Bft)
_ Max-Zeit 15:05 19:45 04:10 20:05 04:35 - - 00:25 15:05 20:00
Maximum _ 28,1 C 91 % 1011,4 hPa 9,8 l/m 19,5 km/h
S-SO (3 Bft)
- - 19,6 C 28,1 C 45,1 km/h
S (6 Bft)
Durchschnitt _ 22,0 C 71 % 1008,9 hPa #28,0 l/m 6,4 km/h (2 Bft) S - 16,3 C 21,3 C 12,4 km/h (3 Bft)